This is the latest recevied weather packets stored in our database for station/object OK1VCF-6. If no packets are shown the sender has not sent any weather packets the latest 10 day(s).
| Time | Temp. | Humidity | Pressure | Rain* | Wind** | Luminosity | Snow |
|---|---|---|---|---|---|---|---|
| 1788589823 | 13.33° C | 90% | 1019 hPa | - | - | - | - |
| 1788588923 | 12.78° C | 91% | 1019 hPa | - | - | - | - |
| 1788588018 | 12.22° C | 90% | 1019 hPa | - | - | - | - |
| 1788552892 | 17.22° C | 83% | 1014 hPa | - | - | - | - |
| 1788550463 | 17.78° C | 84% | 1014.4 hPa | - | - | - | - |
| 1788550190 | 17.78° C | 84% | 1014.4 hPa | - | - | - | - |
| 1788545826 | 20° C | 83% | 1013.8 hPa | - | - | - | - |
| 1788545685 | 20° C | 83% | 1013.8 hPa | - | - | - | - |
| 1788537748 | 20° C | 86% | 1014.1 hPa | - | - | - | - |
| 1788537580 | 20° C | 86% | 1014.1 hPa | - | - | - | - |
| 1788535777 | 20° C | 86% | 1014 hPa | - | - | - | - |
| 1788534878 | 20° C | 88% | 1014.3 hPa | - | - | - | - |
| 1788533981 | 20° C | 88% | 1014.3 hPa | - | - | - | - |
| 1788528574 | 18.89° C | 89% | 1015.4 hPa | - | - | - | - |
| 1788528573 | 18.89° C | 89% | 1015.4 hPa | - | - | - | - |
| 1788523169 | 17.22° C | 92% | 1016.8 hPa | - | - | - | - |
| 1788515963 | 15° C | 94% | 1018.3 hPa | - | - | - | - |
| 1788514166 | 14.44° C | 94% | 1018.3 hPa | - | - | - | - |
| 1788509659 | 14.44° C | 94% | 1018.6 hPa | - | - | - | - |
| 1788508756 | 14.44° C | 94% | 1018.8 hPa | - | - | - | - |
| 1788507968 | 14.44° C | 94% | 1018.6 hPa | - | - | - | - |
| 1788507856 | 14.44° C | 94% | 1018.6 hPa | - | - | - | - |
| 1788506961 | 14.44° C | 93% | 1019 hPa | - | - | - | - |
| 1788493448 | 13.33° C | 93% | 1019.1 hPa | - | - | - | - |
| 1788490746 | 14.44° C | 92% | 1019.5 hPa | - | - | - | - |
* Rain since midnight (hover to see other rain measurements)
** Current wind speed in m/s (hover to see current wind gust speed)